sensor_id;sensor_type;location;lat;lon;timestamp;P1;durP1;ratioP1;P2;durP2;ratioP2
7308;SDS011;3695;53.330;9.876;2023-04-15T00:00:50;13.67;;;9.27;;
7308;SDS011;3695;53.330;9.876;2023-04-15T00:03:18;13.93;;;10.85;;
7308;SDS011;3695;53.330;9.876;2023-04-15T00:05:44;14.83;;;10.47;;
7308;SDS011;3695;53.330;9.876;2023-04-15T00:08:10;15.90;;;11.07;;
7308;SDS011;3695;53.330;9.876;2023-04-15T00:10:37;12.67;;;9.00;;
7308;SDS011;3695;53.330;9.876;2023-04-15T00:13:04;15.35;;;12.00;;
7308;SDS011;3695;53.330;9.876;2023-04-15T00:15:30;19.73;;;10.73;;
7308;SDS011;3695;53.330;9.876;2023-04-15T00:17:56;13.60;;;10.30;;
7308;SDS011;3695;53.330;9.876;2023-04-15T00:20:24;15.88;;;11.23;;
7308;SDS011;3695;53.330;9.876;2023-04-15T00:22:51;12.90;;;9.57;;
7308;SDS011;3695;53.330;9.876;2023-04-15T00:25:17;15.17;;;10.73;;
7308;SDS011;3695;53.330;9.876;2023-04-15T00:27:44;11.77;;;9.00;;
7308;SDS011;3695;53.330;9.876;2023-04-15T00:30:10;11.83;;;8.70;;
7308;SDS011;3695;53.330;9.876;2023-04-15T00:32:37;12.97;;;8.80;;
7308;SDS011;3695;53.330;9.876;2023-04-15T00:35:03;12.63;;;9.20;;
7308;SDS011;3695;53.330;9.876;2023-04-15T00:37:32;12.37;;;9.43;;
7308;SDS011;3695;53.330;9.876;2023-04-15T00:39:59;11.03;;;8.13;;
7308;SDS011;3695;53.330;9.876;2023-04-15T00:42:25;11.60;;;7.80;;
7308;SDS011;3695;53.330;9.876;2023-04-15T00:44:52;11.90;;;8.43;;
7308;SDS011;3695;53.330;9.876;2023-04-15T00:47:19;13.60;;;8.77;;
7308;SDS011;3695;53.330;9.876;2023-04-15T00:49:46;12.83;;;8.30;;
7308;SDS011;3695;53.330;9.876;2023-04-15T00:52:13;14.37;;;9.43;;
7308;SDS011;3695;53.330;9.876;2023-04-15T00:54:41;13.97;;;9.63;;
7308;SDS011;3695;53.330;9.876;2023-04-15T00:57:07;12.97;;;9.80;;
7308;SDS011;3695;53.330;9.876;2023-04-15T00:59:34;15.37;;;9.97;;
7308;SDS011;3695;53.330;9.876;2023-04-15T01:02:01;16.50;;;10.07;;
7308;SDS011;3695;53.330;9.876;2023-04-15T01:04:27;15.40;;;9.83;;
7308;SDS011;3695;53.330;9.876;2023-04-15T01:06:54;14.03;;;9.77;;
7308;SDS011;3695;53.330;9.876;2023-04-15T01:09:20;14.07;;;9.13;;
7308;SDS011;3695;53.330;9.876;2023-04-15T01:11:48;14.37;;;10.57;;
7308;SDS011;3695;53.330;9.876;2023-04-15T01:14:15;13.90;;;9.63;;
7308;SDS011;3695;53.330;9.876;2023-04-15T01:16:42;14.77;;;10.80;;
7308;SDS011;3695;53.330;9.876;2023-04-15T01:19:09;13.87;;;9.43;;
7308;SDS011;3695;53.330;9.876;2023-04-15T01:21:36;13.80;;;9.27;;
7308;SDS011;3695;53.330;9.876;2023-04-15T01:24:04;13.97;;;9.83;;
7308;SDS011;3695;53.330;9.876;2023-04-15T01:26:36;12.57;;;9.03;;
7308;SDS011;3695;53.330;9.876;2023-04-15T01:29:03;14.80;;;9.90;;
7308;SDS011;3695;53.330;9.876;2023-04-15T01:31:30;14.37;;;9.73;;
7308;SDS011;3695;53.330;9.876;2023-04-15T01:33:58;14.00;;;10.00;;
7308;SDS011;3695;53.330;9.876;2023-04-15T01:36:26;14.97;;;9.83;;
7308;SDS011;3695;53.330;9.876;2023-04-15T01:38:52;11.67;;;8.33;;
7308;SDS011;3695;53.330;9.876;2023-04-15T01:41:20;12.30;;;8.93;;
7308;SDS011;3695;53.330;9.876;2023-04-15T01:43:50;12.87;;;8.67;;
7308;SDS011;3695;53.330;9.876;2023-04-15T01:46:17;13.23;;;9.20;;
7308;SDS011;3695;53.330;9.876;2023-04-15T01:48:44;12.50;;;8.97;;
7308;SDS011;3695;53.330;9.876;2023-04-15T01:51:10;14.57;;;9.00;;
7308;SDS011;3695;53.330;9.876;2023-04-15T01:53:37;12.13;;;8.23;;
7308;SDS011;3695;53.330;9.876;2023-04-15T01:56:03;12.55;;;8.00;;
7308;SDS011;3695;53.330;9.876;2023-04-15T01:58:31;11.20;;;8.20;;
7308;SDS011;3695;53.330;9.876;2023-04-15T02:00:59;13.30;;;8.73;;
7308;SDS011;3695;53.330;9.876;2023-04-15T02:03:27;12.40;;;8.27;;
7308;SDS011;3695;53.330;9.876;2023-04-15T02:05:53;13.13;;;8.23;;
7308;SDS011;3695;53.330;9.876;2023-04-15T02:08:20;11.67;;;8.40;;
7308;SDS011;3695;53.330;9.876;2023-04-15T02:10:47;12.67;;;8.67;;
7308;SDS011;3695;53.330;9.876;2023-04-15T02:13:13;12.77;;;9.00;;
7308;SDS011;3695;53.330;9.876;2023-04-15T02:15:40;15.73;;;9.53;;
7308;SDS011;3695;53.330;9.876;2023-04-15T02:18:13;12.73;;;9.43;;
7308;SDS011;3695;53.330;9.876;2023-04-15T02:20:40;13.67;;;9.17;;
7308;SDS011;3695;53.330;9.876;2023-04-15T02:23:07;11.97;;;8.87;;
7308;SDS011;3695;53.330;9.876;2023-04-15T02:25:35;13.03;;;9.33;;
7308;SDS011;3695;53.330;9.876;2023-04-15T02:28:03;12.80;;;9.37;;
7308;SDS011;3695;53.330;9.876;2023-04-15T02:30:30;14.50;;;9.67;;
7308;SDS011;3695;53.330;9.876;2023-04-15T02:32:56;12.90;;;8.87;;
7308;SDS011;3695;53.330;9.876;2023-04-15T02:35:24;13.47;;;9.17;;
7308;SDS011;3695;53.330;9.876;2023-04-15T02:37:51;14.63;;;9.83;;
7308;SDS011;3695;53.330;9.876;2023-04-15T02:40:17;14.73;;;9.73;;
7308;SDS011;3695;53.330;9.876;2023-04-15T02:42:44;13.67;;;9.70;;
7308;SDS011;3695;53.330;9.876;2023-04-15T02:45:10;15.53;;;10.37;;
7308;SDS011;3695;53.330;9.876;2023-04-15T02:47:37;15.83;;;10.37;;
7308;SDS011;3695;53.330;9.876;2023-04-15T02:50:07;13.53;;;9.40;;
7308;SDS011;3695;53.330;9.876;2023-04-15T02:52:37;16.20;;;10.37;;
7308;SDS011;3695;53.330;9.876;2023-04-15T02:55:04;16.93;;;10.57;;
7308;SDS011;3695;53.330;9.876;2023-04-15T02:57:32;14.23;;;10.20;;
7308;SDS011;3695;53.330;9.876;2023-04-15T03:00:00;18.00;;;11.30;;
7308;SDS011;3695;53.330;9.876;2023-04-15T03:02:27;16.10;;;11.17;;
7308;SDS011;3695;53.330;9.876;2023-04-15T03:04:59;16.30;;;10.23;;
7308;SDS011;3695;53.330;9.876;2023-04-15T03:07:25;17.03;;;11.13;;
7308;SDS011;3695;53.330;9.876;2023-04-15T03:09:53;19.47;;;11.60;;
7308;SDS011;3695;53.330;9.876;2023-04-15T03:12:19;15.60;;;10.60;;
7308;SDS011;3695;53.330;9.876;2023-04-15T03:14:46;18.57;;;10.87;;
7308;SDS011;3695;53.330;9.876;2023-04-15T03:17:12;20.10;;;11.63;;
7308;SDS011;3695;53.330;9.876;2023-04-15T03:19:39;15.97;;;10.87;;
7308;SDS011;3695;53.330;9.876;2023-04-15T03:22:05;15.70;;;10.70;;
7308;SDS011;3695;53.330;9.876;2023-04-15T03:24:31;17.03;;;11.00;;
7308;SDS011;3695;53.330;9.876;2023-04-15T03:26:59;16.67;;;11.53;;
7308;SDS011;3695;53.330;9.876;2023-04-15T03:29:26;19.50;;;12.30;;
7308;SDS011;3695;53.330;9.876;2023-04-15T03:31:52;17.37;;;10.97;;
7308;SDS011;3695;53.330;9.876;2023-04-15T03:34:19;17.83;;;10.67;;
7308;SDS011;3695;53.330;9.876;2023-04-15T03:36:46;19.93;;;11.33;;
7308;SDS011;3695;53.330;9.876;2023-04-15T03:39:12;19.20;;;11.27;;
7308;SDS011;3695;53.330;9.876;2023-04-15T03:41:39;18.03;;;11.43;;
7308;SDS011;3695;53.330;9.876;2023-04-15T03:44:06;19.37;;;12.10;;
7308;SDS011;3695;53.330;9.876;2023-04-15T03:46:33;21.30;;;12.67;;
7308;SDS011;3695;53.330;9.876;2023-04-15T03:48:59;21.10;;;11.90;;
7308;SDS011;3695;53.330;9.876;2023-04-15T03:51:26;20.77;;;12.23;;
7308;SDS011;3695;53.330;9.876;2023-04-15T03:53:53;21.43;;;11.93;;
7308;SDS011;3695;53.330;9.876;2023-04-15T03:56:20;19.83;;;12.73;;
7308;SDS011;3695;53.330;9.876;2023-04-15T03:58:46;21.27;;;12.77;;
7308;SDS011;3695;53.330;9.876;2023-04-15T04:01:14;22.30;;;12.70;;
7308;SDS011;3695;53.330;9.876;2023-04-15T04:03:40;21.53;;;12.60;;
7308;SDS011;3695;53.330;9.876;2023-04-15T04:06:07;22.30;;;13.57;;
7308;SDS011;3695;53.330;9.876;2023-04-15T04:08:34;21.67;;;12.30;;
7308;SDS011;3695;53.330;9.876;2023-04-15T04:11:00;23.63;;;12.43;;
7308;SDS011;3695;53.330;9.876;2023-04-15T04:13:27;21.60;;;12.90;;
7308;SDS011;3695;53.330;9.876;2023-04-15T04:15:53;21.50;;;11.60;;
7308;SDS011;3695;53.330;9.876;2023-04-15T04:18:21;21.17;;;12.23;;
7308;SDS011;3695;53.330;9.876;2023-04-15T04:20:48;20.27;;;11.73;;
7308;SDS011;3695;53.330;9.876;2023-04-15T04:23:14;20.50;;;11.83;;
7308;SDS011;3695;53.330;9.876;2023-04-15T04:25:41;19.43;;;11.73;;
7308;SDS011;3695;53.330;9.876;2023-04-15T04:28:07;19.37;;;11.17;;
7308;SDS011;3695;53.330;9.876;2023-04-15T04:30:34;20.47;;;11.20;;
7308;SDS011;3695;53.330;9.876;2023-04-15T04:33:01;18.53;;;11.07;;
7308;SDS011;3695;53.330;9.876;2023-04-15T04:35:29;17.77;;;10.90;;
7308;SDS011;3695;53.330;9.876;2023-04-15T04:37:57;18.63;;;10.93;;
7308;SDS011;3695;53.330;9.876;2023-04-15T04:40:24;19.30;;;11.07;;
7308;SDS011;3695;53.330;9.876;2023-04-15T04:42:50;16.90;;;10.77;;
7308;SDS011;3695;53.330;9.876;2023-04-15T04:45:17;17.43;;;10.63;;
7308;SDS011;3695;53.330;9.876;2023-04-15T04:47:43;16.07;;;10.27;;
7308;SDS011;3695;53.330;9.876;2023-04-15T04:50:10;16.17;;;9.37;;
7308;SDS011;3695;53.330;9.876;2023-04-15T04:52:38;18.43;;;10.77;;
7308;SDS011;3695;53.330;9.876;2023-04-15T04:55:05;16.67;;;10.13;;
7308;SDS011;3695;53.330;9.876;2023-04-15T04:57:32;15.67;;;9.50;;
7308;SDS011;3695;53.330;9.876;2023-04-15T04:59:59;17.43;;;9.80;;
7308;SDS011;3695;53.330;9.876;2023-04-15T05:02:27;16.27;;;9.67;;
7308;SDS011;3695;53.330;9.876;2023-04-15T05:04:54;15.67;;;9.50;;
7308;SDS011;3695;53.330;9.876;2023-04-15T05:07:20;15.93;;;9.63;;
7308;SDS011;3695;53.330;9.876;2023-04-15T05:09:48;15.23;;;8.93;;
7308;SDS011;3695;53.330;9.876;2023-04-15T05:12:14;14.10;;;9.30;;
7308;SDS011;3695;53.330;9.876;2023-04-15T05:14:42;15.40;;;8.97;;
7308;SDS011;3695;53.330;9.876;2023-04-15T05:17:08;14.17;;;8.80;;
7308;SDS011;3695;53.330;9.876;2023-04-15T05:19:35;13.90;;;8.73;;
7308;SDS011;3695;53.330;9.876;2023-04-15T05:22:02;18.00;;;10.13;;
7308;SDS011;3695;53.330;9.876;2023-04-15T05:24:28;16.43;;;8.90;;
7308;SDS011;3695;53.330;9.876;2023-04-15T05:26:56;15.10;;;8.33;;
7308;SDS011;3695;53.330;9.876;2023-04-15T05:29:22;15.63;;;9.23;;
7308;SDS011;3695;53.330;9.876;2023-04-15T05:31:48;15.97;;;9.37;;
7308;SDS011;3695;53.330;9.876;2023-04-15T05:34:15;18.23;;;10.03;;
7308;SDS011;3695;53.330;9.876;2023-04-15T05:36:41;17.03;;;10.07;;
7308;SDS011;3695;53.330;9.876;2023-04-15T05:39:08;18.33;;;10.70;;
7308;SDS011;3695;53.330;9.876;2023-04-15T05:41:34;21.53;;;11.50;;
7308;SDS011;3695;53.330;9.876;2023-04-15T05:44:03;17.73;;;11.40;;
7308;SDS011;3695;53.330;9.876;2023-04-15T05:46:30;19.37;;;11.93;;
7308;SDS011;3695;53.330;9.876;2023-04-15T05:48:56;20.03;;;11.57;;
7308;SDS011;3695;53.330;9.876;2023-04-15T05:51:23;21.30;;;12.60;;
7308;SDS011;3695;53.330;9.876;2023-04-15T05:53:49;20.47;;;12.13;;
7308;SDS011;3695;53.330;9.876;2023-04-15T05:56:16;21.20;;;12.57;;
7308;SDS011;3695;53.330;9.876;2023-04-15T05:58:44;21.60;;;12.83;;
7308;SDS011;3695;53.330;9.876;2023-04-15T06:01:12;23.60;;;13.00;;
7308;SDS011;3695;53.330;9.876;2023-04-15T06:03:38;26.30;;;13.20;;
7308;SDS011;3695;53.330;9.876;2023-04-15T06:06:05;23.43;;;13.50;;
7308;SDS011;3695;53.330;9.876;2023-04-15T06:08:31;23.53;;;13.23;;
7308;SDS011;3695;53.330;9.876;2023-04-15T06:10:58;29.23;;;15.17;;
7308;SDS011;3695;53.330;9.876;2023-04-15T06:13:24;30.27;;;14.63;;
7308;SDS011;3695;53.330;9.876;2023-04-15T06:15:51;28.97;;;15.90;;
7308;SDS011;3695;53.330;9.876;2023-04-15T06:18:19;37.23;;;16.80;;
7308;SDS011;3695;53.330;9.876;2023-04-15T06:20:46;32.47;;;16.67;;
7308;SDS011;3695;53.330;9.876;2023-04-15T06:23:12;33.03;;;17.40;;
7308;SDS011;3695;53.330;9.876;2023-04-15T06:25:39;38.37;;;18.63;;
7308;SDS011;3695;53.330;9.876;2023-04-15T06:28:06;35.70;;;19.37;;
7308;SDS011;3695;53.330;9.876;2023-04-15T06:30:32;41.53;;;19.57;;
7308;SDS011;3695;53.330;9.876;2023-04-15T06:32:59;37.87;;;20.20;;
7308;SDS011;3695;53.330;9.876;2023-04-15T06:35:28;41.40;;;20.60;;
7308;SDS011;3695;53.330;9.876;2023-04-15T06:37:55;41.53;;;21.13;;
7308;SDS011;3695;53.330;9.876;2023-04-15T06:40:21;45.17;;;21.37;;
7308;SDS011;3695;53.330;9.876;2023-04-15T06:42:48;47.60;;;22.30;;
7308;SDS011;3695;53.330;9.876;2023-04-15T06:45:14;48.30;;;22.50;;
7308;SDS011;3695;53.330;9.876;2023-04-15T06:47:41;49.67;;;23.87;;
7308;SDS011;3695;53.330;9.876;2023-04-15T06:50:07;47.13;;;23.67;;
7308;SDS011;3695;53.330;9.876;2023-04-15T06:52:36;50.47;;;24.33;;
7308;SDS011;3695;53.330;9.876;2023-04-15T06:55:03;53.03;;;25.10;;
7308;SDS011;3695;53.330;9.876;2023-04-15T06:57:31;55.13;;;25.87;;
7308;SDS011;3695;53.330;9.876;2023-04-15T06:59:57;59.23;;;26.90;;
7308;SDS011;3695;53.330;9.876;2023-04-15T07:02:24;57.87;;;28.63;;
7308;SDS011;3695;53.330;9.876;2023-04-15T07:04:51;72.23;;;30.77;;
7308;SDS011;3695;53.330;9.876;2023-04-15T07:07:17;72.93;;;30.63;;
7308;SDS011;3695;53.330;9.876;2023-04-15T07:09:45;64.60;;;31.77;;
7308;SDS011;3695;53.330;9.876;2023-04-15T07:12:11;75.40;;;32.43;;
7308;SDS011;3695;53.330;9.876;2023-04-15T07:14:38;78.23;;;32.27;;
7308;SDS011;3695;53.330;9.876;2023-04-15T07:17:04;78.07;;;33.93;;
7308;SDS011;3695;53.330;9.876;2023-04-15T07:19:31;79.77;;;34.17;;
7308;SDS011;3695;53.330;9.876;2023-04-15T07:21:57;75.60;;;33.77;;
7308;SDS011;3695;53.330;9.876;2023-04-15T07:24:24;76.27;;;35.40;;
7308;SDS011;3695;53.330;9.876;2023-04-15T07:26:52;84.03;;;36.10;;
7308;SDS011;3695;53.330;9.876;2023-04-15T07:29:18;75.27;;;36.10;;
7308;SDS011;3695;53.330;9.876;2023-04-15T07:31:45;78.03;;;33.73;;
7308;SDS011;3695;53.330;9.876;2023-04-15T07:34:12;81.10;;;34.97;;
7308;SDS011;3695;53.330;9.876;2023-04-15T07:36:38;78.33;;;34.23;;
7308;SDS011;3695;53.330;9.876;2023-04-15T07:39:05;74.37;;;34.53;;
7308;SDS011;3695;53.330;9.876;2023-04-15T07:41:31;81.97;;;33.93;;
7308;SDS011;3695;53.330;9.876;2023-04-15T07:43:59;83.13;;;36.77;;
7308;SDS011;3695;53.330;9.876;2023-04-15T07:46:26;88.93;;;37.83;;
7308;SDS011;3695;53.330;9.876;2023-04-15T07:48:53;89.33;;;38.73;;
7308;SDS011;3695;53.330;9.876;2023-04-15T07:51:19;85.13;;;38.33;;
7308;SDS011;3695;53.330;9.876;2023-04-15T07:53:46;89.33;;;40.13;;
7308;SDS011;3695;53.330;9.876;2023-04-15T07:56:12;89.23;;;38.63;;
7308;SDS011;3695;53.330;9.876;2023-04-15T07:58:39;84.33;;;39.47;;
7308;SDS011;3695;53.330;9.876;2023-04-15T08:01:06;90.80;;;40.23;;
7308;SDS011;3695;53.330;9.876;2023-04-15T08:03:33;97.57;;;41.43;;
7308;SDS011;3695;53.330;9.876;2023-04-15T08:05:59;98.40;;;42.33;;
7308;SDS011;3695;53.330;9.876;2023-04-15T08:08:26;95.77;;;42.70;;
7308;SDS011;3695;53.330;9.876;2023-04-15T08:10:52;102.57;;;43.60;;
7308;SDS011;3695;53.330;9.876;2023-04-15T08:13:19;96.00;;;42.40;;
7308;SDS011;3695;53.330;9.876;2023-04-15T08:15:45;97.77;;;43.33;;
7308;SDS011;3695;53.330;9.876;2023-04-15T08:18:20;92.57;;;43.13;;
7308;SDS011;3695;53.330;9.876;2023-04-15T08:20:46;100.47;;;45.77;;
7308;SDS011;3695;53.330;9.876;2023-04-15T08:23:13;95.50;;;43.97;;
7308;SDS011;3695;53.330;9.876;2023-04-15T08:25:40;101.97;;;46.47;;
7308;SDS011;3695;53.330;9.876;2023-04-15T08:28:07;95.70;;;43.30;;
7308;SDS011;3695;53.330;9.876;2023-04-15T08:30:34;88.80;;;43.27;;
7308;SDS011;3695;53.330;9.876;2023-04-15T08:33:00;95.33;;;46.10;;
7308;SDS011;3695;53.330;9.876;2023-04-15T08:35:28;100.27;;;46.77;;
7308;SDS011;3695;53.330;9.876;2023-04-15T08:37:55;91.40;;;44.90;;
7308;SDS011;3695;53.330;9.876;2023-04-15T08:40:22;104.70;;;46.10;;
7308;SDS011;3695;53.330;9.876;2023-04-15T08:42:53;93.73;;;44.63;;
7308;SDS011;3695;53.330;9.876;2023-04-15T08:45:24;92.23;;;43.77;;
7308;SDS011;3695;53.330;9.876;2023-04-15T08:47:51;96.60;;;44.30;;
7308;SDS011;3695;53.330;9.876;2023-04-15T08:50:21;91.63;;;43.20;;
7308;SDS011;3695;53.330;9.876;2023-04-15T08:52:53;96.53;;;45.10;;
7308;SDS011;3695;53.330;9.876;2023-04-15T08:55:20;92.23;;;44.10;;
7308;SDS011;3695;53.330;9.876;2023-04-15T08:57:47;94.67;;;45.10;;
7308;SDS011;3695;53.330;9.876;2023-04-15T09:00:14;87.20;;;42.53;;
7308;SDS011;3695;53.330;9.876;2023-04-15T09:02:41;88.40;;;42.60;;
7308;SDS011;3695;53.330;9.876;2023-04-15T09:05:08;96.10;;;44.73;;
7308;SDS011;3695;53.330;9.876;2023-04-15T09:07:35;97.53;;;45.87;;
7308;SDS011;3695;53.330;9.876;2023-04-15T09:10:03;98.13;;;44.87;;
7308;SDS011;3695;53.330;9.876;2023-04-15T09:12:32;94.17;;;44.80;;
7308;SDS011;3695;53.330;9.876;2023-04-15T09:15:00;97.10;;;45.67;;
7308;SDS011;3695;53.330;9.876;2023-04-15T09:17:27;102.53;;;45.63;;
7308;SDS011;3695;53.330;9.876;2023-04-15T09:20:06;97.57;;;45.23;;
7308;SDS011;3695;53.330;9.876;2023-04-15T09:22:33;97.80;;;46.10;;
7308;SDS011;3695;53.330;9.876;2023-04-15T09:25:02;101.50;;;48.80;;
7308;SDS011;3695;53.330;9.876;2023-04-15T09:27:29;204.63;;;101.20;;
7308;SDS011;3695;53.330;9.876;2023-04-15T09:29:56;124.77;;;58.17;;
7308;SDS011;3695;53.330;9.876;2023-04-15T09:32:23;117.73;;;55.37;;
7308;SDS011;3695;53.330;9.876;2023-04-15T09:34:49;101.77;;;47.47;;
7308;SDS011;3695;53.330;9.876;2023-04-15T09:37:16;102.63;;;48.30;;
7308;SDS011;3695;53.330;9.876;2023-04-15T09:39:45;95.97;;;45.53;;
7308;SDS011;3695;53.330;9.876;2023-04-15T09:42:16;103.10;;;47.43;;
7308;SDS011;3695;53.330;9.876;2023-04-15T09:44:48;105.13;;;45.30;;
7308;SDS011;3695;53.330;9.876;2023-04-15T09:47:25;95.40;;;46.90;;
7308;SDS011;3695;53.330;9.876;2023-04-15T09:49:56;104.67;;;47.17;;
7308;SDS011;3695;53.330;9.876;2023-04-15T09:52:23;98.13;;;46.73;;
7308;SDS011;3695;53.330;9.876;2023-04-15T09:54:50;91.37;;;45.63;;
7308;SDS011;3695;53.330;9.876;2023-04-15T09:57:19;98.23;;;45.67;;
7308;SDS011;3695;53.330;9.876;2023-04-15T09:59:47;92.50;;;45.57;;
7308;SDS011;3695;53.330;9.876;2023-04-15T10:02:14;86.03;;;44.17;;
7308;SDS011;3695;53.330;9.876;2023-04-15T10:04:41;351.73;;;199.03;;
7308;SDS011;3695;53.330;9.876;2023-04-15T10:07:09;102.17;;;50.60;;
7308;SDS011;3695;53.330;9.876;2023-04-15T10:09:37;100.53;;;47.30;;
7308;SDS011;3695;53.330;9.876;2023-04-15T10:12:04;89.93;;;47.37;;
7308;SDS011;3695;53.330;9.876;2023-04-15T10:14:33;90.97;;;44.33;;
7308;SDS011;3695;53.330;9.876;2023-04-15T10:17:03;93.53;;;45.77;;
7308;SDS011;3695;53.330;9.876;2023-04-15T10:19:30;79.90;;;42.63;;
7308;SDS011;3695;53.330;9.876;2023-04-15T10:21:59;78.17;;;40.37;;
7308;SDS011;3695;53.330;9.876;2023-04-15T10:24:26;87.23;;;40.90;;
7308;SDS011;3695;53.330;9.876;2023-04-15T10:26:53;82.20;;;42.20;;
7308;SDS011;3695;53.330;9.876;2023-04-15T10:29:21;81.93;;;42.40;;
7308;SDS011;3695;53.330;9.876;2023-04-15T10:31:51;80.23;;;43.53;;
7308;SDS011;3695;53.330;9.876;2023-04-15T10:34:19;80.20;;;43.40;;
7308;SDS011;3695;53.330;9.876;2023-04-15T10:36:46;71.83;;;41.23;;
7308;SDS011;3695;53.330;9.876;2023-04-15T10:42:05;71.60;;;39.60;;
7308;SDS011;3695;53.330;9.876;2023-04-15T10:44:34;70.00;;;40.60;;
7308;SDS011;3695;53.330;9.876;2023-04-15T10:47:05;72.13;;;40.83;;
7308;SDS011;3695;53.330;9.876;2023-04-15T10:49:41;63.43;;;38.37;;
7308;SDS011;3695;53.330;9.876;2023-04-15T10:52:10;65.90;;;38.33;;
7308;SDS011;3695;53.330;9.876;2023-04-15T10:54:37;131.23;;;73.80;;
7308;SDS011;3695;53.330;9.876;2023-04-15T10:57:07;70.07;;;44.90;;
7308;SDS011;3695;53.330;9.876;2023-04-15T11:02:38;87.63;;;51.07;;
7308;SDS011;3695;53.330;9.876;2023-04-15T11:05:06;232.93;;;141.80;;
7308;SDS011;3695;53.330;9.876;2023-04-15T11:07:33;61.90;;;38.07;;
7308;SDS011;3695;53.330;9.876;2023-04-15T11:10:02;63.87;;;37.43;;
7308;SDS011;3695;53.330;9.876;2023-04-15T11:12:33;55.30;;;34.63;;
7308;SDS011;3695;53.330;9.876;2023-04-15T11:17:53;56.87;;;35.23;;
7308;SDS011;3695;53.330;9.876;2023-04-15T11:20:20;59.27;;;33.57;;
7308;SDS011;3695;53.330;9.876;2023-04-15T11:22:47;51.20;;;34.13;;
7308;SDS011;3695;53.330;9.876;2023-04-15T11:25:21;54.17;;;34.33;;
7308;SDS011;3695;53.330;9.876;2023-04-15T11:27:48;54.27;;;34.00;;
7308;SDS011;3695;53.330;9.876;2023-04-15T11:30:18;52.07;;;32.90;;
7308;SDS011;3695;53.330;9.876;2023-04-15T11:32:46;53.37;;;33.97;;
7308;SDS011;3695;53.330;9.876;2023-04-15T11:35:16;53.33;;;34.20;;
7308;SDS011;3695;53.330;9.876;2023-04-15T11:37:43;51.23;;;33.57;;
7308;SDS011;3695;53.330;9.876;2023-04-15T11:40:10;54.87;;;33.20;;
7308;SDS011;3695;53.330;9.876;2023-04-15T11:42:39;51.50;;;32.50;;
7308;SDS011;3695;53.330;9.876;2023-04-15T11:45:06;53.57;;;33.30;;
7308;SDS011;3695;53.330;9.876;2023-04-15T11:47:33;46.20;;;30.33;;
7308;SDS011;3695;53.330;9.876;2023-04-15T11:50:12;42.13;;;27.60;;
7308;SDS011;3695;53.330;9.876;2023-04-15T11:52:42;39.80;;;26.93;;
7308;SDS011;3695;53.330;9.876;2023-04-15T11:55:17;38.20;;;26.07;;
7308;SDS011;3695;53.330;9.876;2023-04-15T11:57:44;47.80;;;28.37;;
7308;SDS011;3695;53.330;9.876;2023-04-15T12:00:11;41.47;;;26.40;;
7308;SDS011;3695;53.330;9.876;2023-04-15T12:02:41;30.40;;;20.67;;
7308;SDS011;3695;53.330;9.876;2023-04-15T12:05:08;29.47;;;19.63;;
7308;SDS011;3695;53.330;9.876;2023-04-15T12:10:24;28.13;;;18.07;;
7308;SDS011;3695;53.330;9.876;2023-04-15T12:12:51;28.30;;;17.90;;
7308;SDS011;3695;53.330;9.876;2023-04-15T12:15:20;23.97;;;17.03;;
7308;SDS011;3695;53.330;9.876;2023-04-15T12:17:47;25.73;;;16.80;;
7308;SDS011;3695;53.330;9.876;2023-04-15T12:20:19;21.30;;;16.07;;
7308;SDS011;3695;53.330;9.876;2023-04-15T12:22:46;23.30;;;17.07;;
7308;SDS011;3695;53.330;9.876;2023-04-15T12:25:14;22.97;;;16.27;;
7308;SDS011;3695;53.330;9.876;2023-04-15T12:27:41;22.70;;;16.57;;
7308;SDS011;3695;53.330;9.876;2023-04-15T12:30:17;23.53;;;15.53;;
7308;SDS011;3695;53.330;9.876;2023-04-15T12:32:43;20.73;;;14.73;;
7308;SDS011;3695;53.330;9.876;2023-04-15T12:35:11;349.03;;;250.70;;
7308;SDS011;3695;53.330;9.876;2023-04-15T12:37:38;54.50;;;34.17;;
7308;SDS011;3695;53.330;9.876;2023-04-15T12:40:06;20.33;;;15.23;;
7308;SDS011;3695;53.330;9.876;2023-04-15T12:42:35;18.37;;;14.03;;
7308;SDS011;3695;53.330;9.876;2023-04-15T12:45:01;19.77;;;14.40;;
7308;SDS011;3695;53.330;9.876;2023-04-15T12:47:28;18.13;;;14.00;;
7308;SDS011;3695;53.330;9.876;2023-04-15T12:49:55;15.87;;;13.33;;
7308;SDS011;3695;53.330;9.876;2023-04-15T12:52:21;18.00;;;13.43;;
7308;SDS011;3695;53.330;9.876;2023-04-15T12:54:49;21.33;;;13.40;;
7308;SDS011;3695;53.330;9.876;2023-04-15T12:57:15;20.07;;;13.37;;
7308;SDS011;3695;53.330;9.876;2023-04-15T12:59:43;17.77;;;13.57;;
7308;SDS011;3695;53.330;9.876;2023-04-15T13:02:09;19.20;;;13.37;;
7308;SDS011;3695;53.330;9.876;2023-04-15T13:04:36;15.37;;;13.37;;
7308;SDS011;3695;53.330;9.876;2023-04-15T13:07:02;16.57;;;12.90;;
7308;SDS011;3695;53.330;9.876;2023-04-15T13:09:28;17.07;;;13.00;;
7308;SDS011;3695;53.330;9.876;2023-04-15T13:11:55;17.23;;;12.93;;
7308;SDS011;3695;53.330;9.876;2023-04-15T13:14:22;17.27;;;13.60;;
7308;SDS011;3695;53.330;9.876;2023-04-15T13:16:49;16.33;;;13.23;;
7308;SDS011;3695;53.330;9.876;2023-04-15T13:19:16;15.87;;;12.70;;
7308;SDS011;3695;53.330;9.876;2023-04-15T13:21:42;17.83;;;13.17;;
7308;SDS011;3695;53.330;9.876;2023-04-15T13:24:09;16.20;;;12.93;;
7308;SDS011;3695;53.330;9.876;2023-04-15T13:26:35;15.53;;;12.63;;
7308;SDS011;3695;53.330;9.876;2023-04-15T13:29:02;231.63;;;166.47;;
7308;SDS011;3695;53.330;9.876;2023-04-15T13:31:28;16.60;;;12.97;;
7308;SDS011;3695;53.330;9.876;2023-04-15T13:33:56;20.33;;;12.90;;
7308;SDS011;3695;53.330;9.876;2023-04-15T13:36:23;15.40;;;12.07;;
7308;SDS011;3695;53.330;9.876;2023-04-15T13:38:50;14.20;;;10.83;;
7308;SDS011;3695;53.330;9.876;2023-04-15T13:41:17;12.97;;;11.20;;
7308;SDS011;3695;53.330;9.876;2023-04-15T13:43:44;17.70;;;11.47;;
7308;SDS011;3695;53.330;9.876;2023-04-15T13:46:11;13.93;;;11.33;;
7308;SDS011;3695;53.330;9.876;2023-04-15T13:48:37;13.63;;;11.03;;
7308;SDS011;3695;53.330;9.876;2023-04-15T13:51:05;16.00;;;11.53;;
7308;SDS011;3695;53.330;9.876;2023-04-15T13:53:32;15.87;;;11.63;;
7308;SDS011;3695;53.330;9.876;2023-04-15T13:55:59;23.13;;;11.73;;
7308;SDS011;3695;53.330;9.876;2023-04-15T13:58:25;14.97;;;11.30;;
7308;SDS011;3695;53.330;9.876;2023-04-15T14:00:52;14.80;;;11.50;;
7308;SDS011;3695;53.330;9.876;2023-04-15T14:03:18;15.50;;;11.60;;
7308;SDS011;3695;53.330;9.876;2023-04-15T14:05:45;16.33;;;12.63;;
7308;SDS011;3695;53.330;9.876;2023-04-15T14:08:13;18.43;;;12.30;;
7308;SDS011;3695;53.330;9.876;2023-04-15T14:10:39;14.37;;;11.77;;
7308;SDS011;3695;53.330;9.876;2023-04-15T14:13:08;14.03;;;11.63;;
7308;SDS011;3695;53.330;9.876;2023-04-15T14:15:34;16.50;;;11.67;;
7308;SDS011;3695;53.330;9.876;2023-04-15T14:18:01;18.13;;;11.97;;
7308;SDS011;3695;53.330;9.876;2023-04-15T14:20:27;17.67;;;12.33;;
7308;SDS011;3695;53.330;9.876;2023-04-15T14:22:53;16.77;;;11.87;;
7308;SDS011;3695;53.330;9.876;2023-04-15T14:25:21;14.80;;;11.53;;
7308;SDS011;3695;53.330;9.876;2023-04-15T14:27:48;15.73;;;12.43;;
7308;SDS011;3695;53.330;9.876;2023-04-15T14:30:14;16.20;;;12.40;;
7308;SDS011;3695;53.330;9.876;2023-04-15T14:32:40;14.27;;;11.07;;
7308;SDS011;3695;53.330;9.876;2023-04-15T14:35:07;13.83;;;11.03;;
7308;SDS011;3695;53.330;9.876;2023-04-15T14:37:34;18.70;;;12.20;;
7308;SDS011;3695;53.330;9.876;2023-04-15T14:40:00;14.80;;;11.23;;
7308;SDS011;3695;53.330;9.876;2023-04-15T14:42:28;18.13;;;11.97;;
7308;SDS011;3695;53.330;9.876;2023-04-15T14:44:55;13.97;;;11.03;;
7308;SDS011;3695;53.330;9.876;2023-04-15T14:47:21;17.80;;;11.63;;
7308;SDS011;3695;53.330;9.876;2023-04-15T14:49:48;15.73;;;11.50;;
7308;SDS011;3695;53.330;9.876;2023-04-15T14:52:14;14.83;;;11.10;;
7308;SDS011;3695;53.330;9.876;2023-04-15T14:54:41;16.23;;;10.53;;
7308;SDS011;3695;53.330;9.876;2023-04-15T14:57:07;14.97;;;11.20;;
7308;SDS011;3695;53.330;9.876;2023-04-15T14:59:35;16.43;;;12.13;;
7308;SDS011;3695;53.330;9.876;2023-04-15T15:02:02;15.07;;;11.40;;